sensor_id;sensor_type;location;lat;lon;timestamp;pressure;altitude;pressure_sealevel;temperature;humidity
59106;BME280;44891;50.204;8.132;2023-04-28T00:02:44;98063.59;;;10.51;76.37
59106;BME280;44891;50.204;8.132;2023-04-28T00:06:48;98060.81;;;10.58;74.88
59106;BME280;44891;50.204;8.132;2023-04-28T00:10:49;98047.34;;;10.54;76.56
59106;BME280;44891;50.204;8.132;2023-04-28T00:14:51;98040.13;;;10.45;77.12
59106;BME280;44891;50.204;8.132;2023-04-28T00:18:55;98029.97;;;10.31;77.52
59106;BME280;44891;50.204;8.132;2023-04-28T00:22:57;98036.94;;;10.43;76.59
59106;BME280;44891;50.204;8.132;2023-04-28T00:26:58;98028.22;;;10.37;75.22
59106;BME280;44891;50.204;8.132;2023-04-28T00:31:00;98025.19;;;10.28;76.51
59106;BME280;44891;50.204;8.132;2023-04-28T00:35:04;98014.25;;;10.37;75.43
59106;BME280;44891;50.204;8.132;2023-04-28T00:39:07;98019.84;;;10.40;74.99
59106;BME280;44891;50.204;8.132;2023-04-28T00:43:09;98018.09;;;10.46;74.44
59106;BME280;44891;50.204;8.132;2023-04-28T00:47:11;98012.50;;;10.42;75.97
59106;BME280;44891;50.204;8.132;2023-04-28T00:51:15;98007.09;;;10.49;76.49
59106;BME280;44891;50.204;8.132;2023-04-28T00:55:17;98000.25;;;10.48;76.81
59106;BME280;44891;50.204;8.132;2023-04-28T00:59:19;97993.06;;;10.38;78.91
59106;BME280;44891;50.204;8.132;2023-04-28T01:03:21;97983.81;;;10.35;79.47
59106;BME280;44891;50.204;8.132;2023-04-28T01:07:24;97974.44;;;10.40;80.93
59106;BME280;44891;50.204;8.132;2023-04-28T01:11:26;97970.06;;;10.28;77.99
59106;BME280;44891;50.204;8.132;2023-04-28T01:15:38;97966.22;;;10.36;77.05
59106;BME280;44891;50.204;8.132;2023-04-28T01:19:40;97957.44;;;10.25;80.50
59106;BME280;44891;50.204;8.132;2023-04-28T01:23:45;97941.94;;;10.24;81.30
59106;BME280;44891;50.204;8.132;2023-04-28T01:27:48;97944.56;;;10.24;79.93
59106;BME280;44891;50.204;8.132;2023-04-28T01:31:50;97948.50;;;10.09;81.75
59106;BME280;44891;50.204;8.132;2023-04-28T01:35:55;97951.63;;;10.06;83.79
59106;BME280;44891;50.204;8.132;2023-04-28T01:39:59;97954.00;;;10.08;86.92
59106;BME280;44891;50.204;8.132;2023-04-28T01:44:00;97954.25;;;10.06;89.28
59106;BME280;44891;50.204;8.132;2023-04-28T01:48:03;97945.09;;;10.09;89.83
59106;BME280;44891;50.204;8.132;2023-04-28T01:52:05;97948.28;;;10.11;91.63
59106;BME280;44891;50.204;8.132;2023-04-28T01:56:08;97942.47;;;10.09;90.97
59106;BME280;44891;50.204;8.132;2023-04-28T02:00:11;97943.84;;;10.12;93.04
59106;BME280;44891;50.204;8.132;2023-04-28T02:04:22;97941.38;;;10.05;93.97
59106;BME280;44891;50.204;8.132;2023-04-28T02:08:23;97936.13;;;10.05;91.86
59106;BME280;44891;50.204;8.132;2023-04-28T02:12:27;97939.06;;;10.08;89.69
59106;BME280;44891;50.204;8.132;2023-04-28T02:16:29;97937.72;;;10.06;89.46
59106;BME280;44891;50.204;8.132;2023-04-28T02:20:30;97935.19;;;9.94;88.95
59106;BME280;44891;50.204;8.132;2023-04-28T02:24:33;97925.03;;;9.98;87.70
59106;BME280;44891;50.204;8.132;2023-04-28T02:28:37;97919.69;;;9.93;89.10
59106;BME280;44891;50.204;8.132;2023-04-28T02:32:39;97925.72;;;9.93;92.67
59106;BME280;44891;50.204;8.132;2023-04-28T02:36:41;97921.81;;;9.96;95.12
59106;BME280;44891;50.204;8.132;2023-04-28T02:40:43;97922.63;;;9.96;95.78
59106;BME280;44891;50.204;8.132;2023-04-28T02:44:46;97916.13;;;9.99;93.47
59106;BME280;44891;50.204;8.132;2023-04-28T02:48:48;97909.34;;;10.03;92.61
59106;BME280;44891;50.204;8.132;2023-04-28T02:52:50;97917.34;;;10.13;92.91
59106;BME280;44891;50.204;8.132;2023-04-28T02:56:52;97899.06;;;10.18;94.30
59106;BME280;44891;50.204;8.132;2023-04-28T03:00:55;97887.69;;;10.13;96.34
59106;BME280;44891;50.204;8.132;2023-04-28T03:04:57;97882.63;;;10.06;96.63
59106;BME280;44891;50.204;8.132;2023-04-28T03:08:58;97874.50;;;10.07;97.63
59106;BME280;44891;50.204;8.132;2023-04-28T03:13:01;97882.13;;;10.09;98.06
59106;BME280;44891;50.204;8.132;2023-04-28T03:17:05;97869.63;;;10.16;98.04
59106;BME280;44891;50.204;8.132;2023-04-28T03:21:07;97857.16;;;10.23;99.34
59106;BME280;44891;50.204;8.132;2023-04-28T03:25:09;97854.66;;;10.17;98.45
59106;BME280;44891;50.204;8.132;2023-04-28T03:29:19;97851.69;;;10.25;92.28
59106;BME280;44891;50.204;8.132;2023-04-28T03:33:25;97844.81;;;10.46;87.15
59106;BME280;44891;50.204;8.132;2023-04-28T03:37:27;97838.66;;;10.57;91.05
59106;BME280;44891;50.204;8.132;2023-04-28T03:41:31;97840.56;;;10.67;91.11
59106;BME280;44891;50.204;8.132;2023-04-28T03:45:51;97829.47;;;10.59;88.17
59106;BME280;44891;50.204;8.132;2023-04-28T03:49:55;97823.50;;;10.69;90.49
59106;BME280;44891;50.204;8.132;2023-04-28T03:53:58;97826.91;;;10.65;95.25
59106;BME280;44891;50.204;8.132;2023-04-28T03:58:00;97818.66;;;10.56;92.54
59106;BME280;44891;50.204;8.132;2023-04-28T04:02:02;97828.22;;;10.67;90.61
59106;BME280;44891;50.204;8.132;2023-04-28T04:06:06;97823.50;;;10.69;93.02
59106;BME280;44891;50.204;8.132;2023-04-28T04:10:08;97839.53;;;10.68;91.09
59106;BME280;44891;50.204;8.132;2023-04-28T04:14:11;97844.53;;;10.69;88.60
59106;BME280;44891;50.204;8.132;2023-04-28T04:18:14;97840.97;;;10.80;86.14
59106;BME280;44891;50.204;8.132;2023-04-28T04:22:39;97848.41;;;10.88;83.56
59106;BME280;44891;50.204;8.132;2023-04-28T04:26:42;97843.34;;;10.82;81.43
59106;BME280;44891;50.204;8.132;2023-04-28T04:31:01;97840.50;;;10.88;76.52
59106;BME280;44891;50.204;8.132;2023-04-28T04:35:04;97836.34;;;10.93;75.12
59106;BME280;44891;50.204;8.132;2023-04-28T04:39:07;97840.03;;;10.92;75.19
59106;BME280;44891;50.204;8.132;2023-04-28T04:43:09;97830.56;;;10.91;75.49
59106;BME280;44891;50.204;8.132;2023-04-28T04:47:17;97831.06;;;10.87;81.41
59106;BME280;44891;50.204;8.132;2023-04-28T04:51:20;97828.34;;;10.77;81.73
59106;BME280;44891;50.204;8.132;2023-04-28T04:55:23;97833.28;;;10.74;83.58
59106;BME280;44891;50.204;8.132;2023-04-28T04:59:26;97834.06;;;10.74;83.50
59106;BME280;44891;50.204;8.132;2023-04-28T05:03:34;97826.19;;;10.74;84.75
59106;BME280;44891;50.204;8.132;2023-04-28T05:07:36;97826.25;;;10.79;84.88
59106;BME280;44891;50.204;8.132;2023-04-28T05:11:39;97829.09;;;10.73;89.10
59106;BME280;44891;50.204;8.132;2023-04-28T05:15:41;97819.75;;;10.60;88.02
59106;BME280;44891;50.204;8.132;2023-04-28T05:20:04;97824.56;;;10.68;91.23
59106;BME280;44891;50.204;8.132;2023-04-28T05:24:06;97826.41;;;10.68;91.10
59106;BME280;44891;50.204;8.132;2023-04-28T05:28:09;97818.44;;;10.57;89.50
59106;BME280;44891;50.204;8.132;2023-04-28T05:32:11;97784.31;;;10.35;91.52
59106;BME280;44891;50.204;8.132;2023-04-28T05:36:13;97824.66;;;10.51;91.98
59106;BME280;44891;50.204;8.132;2023-04-28T05:40:16;97826.72;;;10.49;90.96
59106;BME280;44891;50.204;8.132;2023-04-28T05:44:19;97843.53;;;10.48;93.21
59106;BME280;44891;50.204;8.132;2023-04-28T05:48:21;97841.47;;;10.50;92.83
59106;BME280;44891;50.204;8.132;2023-04-28T05:52:23;97847.72;;;10.49;98.03
59106;BME280;44891;50.204;8.132;2023-04-28T05:56:25;97859.53;;;10.47;100.00
59106;BME280;44891;50.204;8.132;2023-04-28T06:00:31;97855.56;;;10.44;100.00
59106;BME280;44891;50.204;8.132;2023-04-28T06:04:34;97849.47;;;10.39;100.00
59106;BME280;44891;50.204;8.132;2023-04-28T06:08:36;97835.25;;;10.34;98.89
59106;BME280;44891;50.204;8.132;2023-04-28T06:12:38;97836.28;;;10.33;97.16
59106;BME280;44891;50.204;8.132;2023-04-28T06:16:42;97848.75;;;10.43;97.45
59106;BME280;44891;50.204;8.132;2023-04-28T06:20:44;97844.50;;;10.42;99.52
59106;BME280;44891;50.204;8.132;2023-04-28T06:24:45;97835.44;;;10.50;100.00
59106;BME280;44891;50.204;8.132;2023-04-28T06:28:52;97827.03;;;10.53;100.00
59106;BME280;44891;50.204;8.132;2023-04-28T06:32:55;97833.63;;;10.55;100.00
59106;BME280;44891;50.204;8.132;2023-04-28T06:36:57;97842.28;;;10.56;100.00
59106;BME280;44891;50.204;8.132;2023-04-28T06:41:00;97842.78;;;10.53;100.00
59106;BME280;44891;50.204;8.132;2023-04-28T06:45:03;97835.22;;;10.56;100.00
59106;BME280;44891;50.204;8.132;2023-04-28T06:49:06;97823.72;;;10.62;100.00
59106;BME280;44891;50.204;8.132;2023-04-28T06:53:08;97812.41;;;10.62;100.00
59106;BME280;44891;50.204;8.132;2023-04-28T06:57:10;97801.59;;;10.53;100.00
59106;BME280;44891;50.204;8.132;2023-04-28T07:01:12;97810.34;;;10.64;100.00
59106;BME280;44891;50.204;8.132;2023-04-28T07:05:15;97806.75;;;10.70;100.00
59106;BME280;44891;50.204;8.132;2023-04-28T07:09:17;97804.44;;;10.79;100.00
59106;BME280;44891;50.204;8.132;2023-04-28T07:13:18;97786.91;;;10.84;100.00
59106;BME280;44891;50.204;8.132;2023-04-28T07:17:20;97788.66;;;11.06;100.00
59106;BME280;44891;50.204;8.132;2023-04-28T07:21:23;97781.03;;;11.04;100.00
59106;BME280;44891;50.204;8.132;2023-04-28T07:25:26;97778.66;;;11.03;100.00
59106;BME280;44891;50.204;8.132;2023-04-28T07:29:27;97783.56;;;10.94;100.00
59106;BME280;44891;50.204;8.132;2023-04-28T07:33:33;97785.34;;;10.88;100.00
59106;BME280;44891;50.204;8.132;2023-04-28T07:37:36;97795.38;;;11.29;100.00
59106;BME280;44891;50.204;8.132;2023-04-28T07:41:39;97794.81;;;11.64;100.00
59106;BME280;44891;50.204;8.132;2023-04-28T07:45:41;97804.13;;;11.82;100.00
59106;BME280;44891;50.204;8.132;2023-04-28T07:49:45;97778.13;;;11.43;100.00
59106;BME280;44891;50.204;8.132;2023-04-28T07:53:48;97807.41;;;11.57;100.00
59106;BME280;44891;50.204;8.132;2023-04-28T07:57:49;97820.00;;;11.55;100.00
59106;BME280;44891;50.204;8.132;2023-04-28T08:01:51;97808.69;;;11.49;100.00
59106;BME280;44891;50.204;8.132;2023-04-28T08:05:53;97822.53;;;11.39;100.00
59106;BME280;44891;50.204;8.132;2023-04-28T08:09:56;97815.53;;;11.55;100.00
59106;BME280;44891;50.204;8.132;2023-04-28T08:13:58;97824.19;;;11.51;100.00
59106;BME280;44891;50.204;8.132;2023-04-28T08:18:02;97831.69;;;11.69;100.00
59106;BME280;44891;50.204;8.132;2023-04-28T08:22:04;97839.94;;;11.88;100.00
59106;BME280;44891;50.204;8.132;2023-04-28T08:26:08;97832.38;;;12.02;100.00
59106;BME280;44891;50.204;8.132;2023-04-28T08:30:10;97835.63;;;12.19;100.00
59106;BME280;44891;50.204;8.132;2023-04-28T08:34:11;97833.34;;;12.43;100.00
59106;BME280;44891;50.204;8.132;2023-04-28T08:38:13;97837.84;;;12.52;100.00
59106;BME280;44891;50.204;8.132;2023-04-28T08:42:18;97829.16;;;12.52;100.00
59106;BME280;44891;50.204;8.132;2023-04-28T08:46:20;97832.91;;;12.82;100.00
59106;BME280;44891;50.204;8.132;2023-04-28T08:50:22;97835.06;;;13.20;100.00
59106;BME280;44891;50.204;8.132;2023-04-28T08:54:24;97839.53;;;13.25;98.98
59106;BME280;44891;50.204;8.132;2023-04-28T08:58:32;97841.66;;;13.48;96.27
59106;BME280;44891;50.204;8.132;2023-04-28T09:02:35;97844.78;;;13.71;97.40
59106;BME280;44891;50.204;8.132;2023-04-28T09:06:37;97844.44;;;13.98;95.19
59106;BME280;44891;50.204;8.132;2023-04-28T09:10:40;97847.59;;;14.05;94.28
59106;BME280;44891;50.204;8.132;2023-04-28T09:14:43;97837.41;;;14.42;92.81
59106;BME280;44891;50.204;8.132;2023-04-28T09:18:54;97838.91;;;15.03;90.86
59106;BME280;44891;50.204;8.132;2023-04-28T09:23:12;97841.16;;;15.54;89.83
59106;BME280;44891;50.204;8.132;2023-04-28T09:27:14;97839.66;;;15.43;88.11
59106;BME280;44891;50.204;8.132;2023-04-28T09:31:22;97841.13;;;14.91;91.97
59106;BME280;44891;50.204;8.132;2023-04-28T09:35:37;97850.59;;;14.97;95.42
59106;BME280;44891;50.204;8.132;2023-04-28T09:39:39;97840.34;;;15.24;93.39
59106;BME280;44891;50.204;8.132;2023-04-28T09:43:41;97836.50;;;15.99;91.21
59106;BME280;44891;50.204;8.132;2023-04-28T09:47:44;97834.28;;;16.49;87.00
59106;BME280;44891;50.204;8.132;2023-04-28T09:51:47;97837.63;;;16.78;83.58
59106;BME280;44891;50.204;8.132;2023-04-28T09:55:51;97828.81;;;17.16;78.76
59106;BME280;44891;50.204;8.132;2023-04-28T09:59:53;97819.84;;;16.98;78.71
59106;BME280;44891;50.204;8.132;2023-04-28T10:03:56;97814.66;;;17.39;75.15
59106;BME280;44891;50.204;8.132;2023-04-28T10:07:59;97800.41;;;17.49;73.17
59106;BME280;44891;50.204;8.132;2023-04-28T10:12:01;97808.00;;;17.69;73.10
59106;BME280;44891;50.204;8.132;2023-04-28T10:16:04;97802.16;;;17.72;70.15
59106;BME280;44891;50.204;8.132;2023-04-28T10:20:09;97798.66;;;18.27;67.12
59106;BME280;44891;50.204;8.132;2023-04-28T10:24:14;97790.81;;;17.94;65.61
59106;BME280;44891;50.204;8.132;2023-04-28T10:28:18;97792.50;;;17.90;67.93
59106;BME280;44891;50.204;8.132;2023-04-28T10:32:21;97798.00;;;17.20;69.73
59106;BME280;44891;50.204;8.132;2023-04-28T10:40:43;97802.34;;;16.40;76.82
59106;BME280;44891;50.204;8.132;2023-04-28T10:44:45;97798.84;;;16.45;79.03
59106;BME280;44891;50.204;8.132;2023-04-28T10:53:06;97804.63;;;16.66;80.33
59106;BME280;44891;50.204;8.132;2023-04-28T10:57:16;97794.91;;;16.80;79.42
59106;BME280;44891;50.204;8.132;2023-04-28T11:01:25;97793.56;;;17.89;76.72
59106;BME280;44891;50.204;8.132;2023-04-28T11:05:27;97791.63;;;17.81;70.45
59106;BME280;44891;50.204;8.132;2023-04-28T11:09:46;97785.69;;;17.56;73.20
59106;BME280;44891;50.204;8.132;2023-04-28T11:13:50;97776.75;;;17.80;74.89
59106;BME280;44891;50.204;8.132;2023-04-28T11:17:52;97768.91;;;18.38;69.53
59106;BME280;44891;50.204;8.132;2023-04-28T11:21:58;97761.56;;;18.71;68.53
59106;BME280;44891;50.204;8.132;2023-04-28T11:26:00;97764.97;;;18.94;70.42
59106;BME280;44891;50.204;8.132;2023-04-28T11:30:17;97768.66;;;19.61;68.35
59106;BME280;44891;50.204;8.132;2023-04-28T11:34:20;97766.44;;;19.00;66.21
59106;BME280;44891;50.204;8.132;2023-04-28T11:38:22;97762.88;;;19.67;67.85
59106;BME280;44891;50.204;8.132;2023-04-28T11:42:24;97767.34;;;19.89;65.94
59106;BME280;44891;50.204;8.132;2023-04-28T11:46:29;97768.56;;;19.43;65.85
59106;BME280;44891;50.204;8.132;2023-04-28T11:50:34;97762.03;;;18.96;67.01
59106;BME280;44891;50.204;8.132;2023-04-28T11:54:36;97764.75;;;18.46;70.26
59106;BME280;44891;50.204;8.132;2023-04-28T11:58:38;97760.78;;;18.57;69.77
59106;BME280;44891;50.204;8.132;2023-04-28T12:02:41;97769.50;;;18.49;71.30
59106;BME280;44891;50.204;8.132;2023-04-28T12:06:43;97771.34;;;18.85;69.52
59106;BME280;44891;50.204;8.132;2023-04-28T12:10:58;97751.88;;;18.98;67.54
59106;BME280;44891;50.204;8.132;2023-04-28T12:15:08;97747.66;;;19.28;68.20
59106;BME280;44891;50.204;8.132;2023-04-28T12:19:11;97741.94;;;19.43;66.62
59106;BME280;44891;50.204;8.132;2023-04-28T12:23:14;97751.50;;;19.93;64.32
59106;BME280;44891;50.204;8.132;2023-04-28T12:27:16;97753.69;;;20.48;63.59
59106;BME280;44891;50.204;8.132;2023-04-28T12:31:21;97748.44;;;21.03;60.37
59106;BME280;44891;50.204;8.132;2023-04-28T12:35:24;97748.84;;;21.40;59.59
59106;BME280;44891;50.204;8.132;2023-04-28T12:39:26;97740.44;;;21.03;60.02
59106;BME280;44891;50.204;8.132;2023-04-28T12:43:28;97742.19;;;20.90;60.14
59106;BME280;44891;50.204;8.132;2023-04-28T12:47:30;97748.22;;;21.26;59.44
59106;BME280;44891;50.204;8.132;2023-04-28T12:51:34;97749.34;;;21.16;60.92
59106;BME280;44891;50.204;8.132;2023-04-28T12:55:36;97734.63;;;21.01;60.07
59106;BME280;44891;50.204;8.132;2023-04-28T12:59:38;97741.69;;;21.91;59.01
59106;BME280;44891;50.204;8.132;2023-04-28T13:03:40;97738.81;;;21.28;59.44
59106;BME280;44891;50.204;8.132;2023-04-28T13:07:44;97739.56;;;20.56;61.89
59106;BME280;44891;50.204;8.132;2023-04-28T13:11:47;97726.75;;;19.92;65.76
59106;BME280;44891;50.204;8.132;2023-04-28T13:15:49;97739.81;;;19.23;68.91
59106;BME280;44891;50.204;8.132;2023-04-28T13:19:51;97727.16;;;18.61;71.77
59106;BME280;44891;50.204;8.132;2023-04-28T13:23:55;97739.22;;;18.59;73.34
59106;BME280;44891;50.204;8.132;2023-04-28T13:27:57;97736.41;;;18.41;73.65
59106;BME280;44891;50.204;8.132;2023-04-28T13:31:58;97723.94;;;17.78;77.10
59106;BME280;44891;50.204;8.132;2023-04-28T13:36:00;97742.56;;;17.18;79.21
59106;BME280;44891;50.204;8.132;2023-04-28T13:40:04;97730.44;;;16.98;80.36
59106;BME280;44891;50.204;8.132;2023-04-28T13:44:06;97734.19;;;16.59;81.57
59106;BME280;44891;50.204;8.132;2023-04-28T13:48:08;97732.91;;;16.57;82.83
59106;BME280;44891;50.204;8.132;2023-04-28T13:52:11;97747.81;;;16.15;87.97
59106;BME280;44891;50.204;8.132;2023-04-28T13:56:15;97726.00;;;15.81;94.06
59106;BME280;44891;50.204;8.132;2023-04-28T14:00:17;97707.94;;;16.07;94.65
59106;BME280;44891;50.204;8.132;2023-04-28T14:04:20;97699.97;;;17.09;91.88
59106;BME280;44891;50.204;8.132;2023-04-28T14:08:22;97701.47;;;18.34;89.19
59106;BME280;44891;50.204;8.132;2023-04-28T14:12:26;97700.50;;;18.66;85.46
59106;BME280;44891;50.204;8.132;2023-04-28T14:16:28;97704.31;;;19.05;83.30
59106;BME280;44891;50.204;8.132;2023-04-28T14:20:30;97712.72;;;19.61;76.19
59106;BME280;44891;50.204;8.132;2023-04-28T14:24:31;97705.34;;;20.49;73.39
59106;BME280;44891;50.204;8.132;2023-04-28T14:28:35;97708.09;;;19.92;73.45
59106;BME280;44891;50.204;8.132;2023-04-28T14:32:37;97698.34;;;19.39;77.25
59106;BME280;44891;50.204;8.132;2023-04-28T14:36:39;97682.41;;;18.77;76.62
59106;BME280;44891;50.204;8.132;2023-04-28T14:40:41;97671.47;;;18.79;79.85
59106;BME280;44891;50.204;8.132;2023-04-28T14:44:44;97688.44;;;19.22;77.89
59106;BME280;44891;50.204;8.132;2023-04-28T14:48:47;97685.81;;;19.00;79.28
59106;BME280;44891;50.204;8.132;2023-04-28T14:52:48;97663.91;;;18.72;78.17
59106;BME280;44891;50.204;8.132;2023-04-28T14:56:50;97676.22;;;18.45;81.77
59106;BME280;44891;50.204;8.132;2023-04-28T15:00:53;97680.94;;;18.48;79.15
59106;BME280;44891;50.204;8.132;2023-04-28T15:04:55;97676.28;;;18.54;77.76
59106;BME280;44891;50.204;8.132;2023-04-28T15:08:57;97669.81;;;18.46;79.12
59106;BME280;44891;50.204;8.132;2023-04-28T15:12:59;97665.88;;;18.21;80.70
59106;BME280;44891;50.204;8.132;2023-04-28T15:17:02;97659.19;;;17.88;82.88
59106;BME280;44891;50.204;8.132;2023-04-28T15:21:04;97673.88;;;17.58;88.05
59106;BME280;44891;50.204;8.132;2023-04-28T15:25:07;97673.75;;;17.08;91.67
59106;BME280;44891;50.204;8.132;2023-04-28T15:29:09;97678.66;;;16.68;94.54
59106;BME280;44891;50.204;8.132;2023-04-28T15:33:13;97677.59;;;16.50;97.26
59106;BME280;44891;50.204;8.132;2023-04-28T15:41:37;97659.31;;;16.68;95.72
59106;BME280;44891;50.204;8.132;2023-04-28T15:45:39;97627.97;;;16.37;95.92
59106;BME280;44891;50.204;8.132;2023-04-28T15:49:42;97686.38;;;16.51;98.23
59106;BME280;44891;50.204;8.132;2023-04-28T15:53:44;97702.00;;;16.34;99.58
59106;BME280;44891;50.204;8.132;2023-04-28T15:57:46;97711.22;;;16.36;99.88
59106;BME280;44891;50.204;8.132;2023-04-28T16:01:48;97674.47;;;16.29;100.00
59106;BME280;44891;50.204;8.132;2023-04-28T16:05:53;97691.69;;;16.13;100.00
59106;BME280;44891;50.204;8.132;2023-04-28T16:09:55;97679.22;;;16.14;100.00
59106;BME280;44891;50.204;8.132;2023-04-28T16:13:56;97679.06;;;16.24;100.00
59106;BME280;44891;50.204;8.132;2023-04-28T16:17:58;97677.47;;;16.93;100.00
59106;BME280;44891;50.204;8.132;2023-04-28T16:22:03;97670.13;;;17.18;97.77
59106;BME280;44891;50.204;8.132;2023-04-28T16:26:04;97664.72;;;17.36;95.72
59106;BME280;44891;50.204;8.132;2023-04-28T16:30:07;97666.69;;;17.72;96.97
59106;BME280;44891;50.204;8.132;2023-04-28T16:34:09;97665.97;;;17.94;95.90
59106;BME280;44891;50.204;8.132;2023-04-28T16:38:13;97671.78;;;17.55;94.72
59106;BME280;44891;50.204;8.132;2023-04-28T16:42:16;97665.91;;;17.44;94.02
59106;BME280;44891;50.204;8.132;2023-04-28T16:46:20;97668.34;;;17.54;92.60
59106;BME280;44891;50.204;8.132;2023-04-28T16:50:22;97674.56;;;17.50;92.44
59106;BME280;44891;50.204;8.132;2023-04-28T16:54:25;97684.59;;;17.53;91.45
59106;BME280;44891;50.204;8.132;2023-04-28T16:58:27;97685.28;;;17.58;94.19
59106;BME280;44891;50.204;8.132;2023-04-28T17:02:29;97673.19;;;17.52;92.66
59106;BME280;44891;50.204;8.132;2023-04-28T17:06:32;97671.56;;;17.10;91.70
59106;BME280;44891;50.204;8.132;2023-04-28T17:10:36;97660.66;;;16.84;92.45
59106;BME280;44891;50.204;8.132;2023-04-28T17:14:38;97669.56;;;16.74;91.93
59106;BME280;44891;50.204;8.132;2023-04-28T17:18:41;97682.69;;;16.66;94.19
59106;BME280;44891;50.204;8.132;2023-04-28T17:22:43;97695.22;;;16.60;93.98
59106;BME280;44891;50.204;8.132;2023-04-28T17:26:47;97697.47;;;16.53;93.93
59106;BME280;44891;50.204;8.132;2023-04-28T17:30:49;97687.69;;;16.67;95.98
59106;BME280;44891;50.204;8.132;2023-04-28T17:34:52;97682.03;;;16.74;95.80
59106;BME280;44891;50.204;8.132;2023-04-28T17:38:53;97692.88;;;16.77;96.02
59106;BME280;44891;50.204;8.132;2023-04-28T17:42:57;97699.94;;;16.63;94.94
59106;BME280;44891;50.204;8.132;2023-04-28T17:46:59;97692.53;;;16.46;92.50
59106;BME280;44891;50.204;8.132;2023-04-28T17:51:01;97703.69;;;16.43;90.67
59106;BME280;44891;50.204;8.132;2023-04-28T17:55:04;97708.00;;;16.39;91.99
59106;BME280;44891;50.204;8.132;2023-04-28T17:59:07;97718.81;;;16.24;92.00
59106;BME280;44891;50.204;8.132;2023-04-28T18:03:09;97714.31;;;16.06;93.06
59106;BME280;44891;50.204;8.132;2023-04-28T18:07:10;97715.09;;;16.06;95.49
59106;BME280;44891;50.204;8.132;2023-04-28T18:11:12;97727.53;;;15.87;93.88
59106;BME280;44891;50.204;8.132;2023-04-28T18:15:15;97735.13;;;15.69;96.44
59106;BME280;44891;50.204;8.132;2023-04-28T18:19:17;97741.56;;;15.63;99.20
59106;BME280;44891;50.204;8.132;2023-04-28T18:23:19;97743.72;;;15.56;100.00
59106;BME280;44891;50.204;8.132;2023-04-28T18:27:21;97735.78;;;15.56;100.00
59106;BME280;44891;50.204;8.132;2023-04-28T18:31:24;97736.91;;;15.50;100.00
59106;BME280;44891;50.204;8.132;2023-04-28T18:35:26;97741.34;;;15.31;100.00
59106;BME280;44891;50.204;8.132;2023-04-28T18:39:28;97745.44;;;15.18;100.00
59106;BME280;44891;50.204;8.132;2023-04-28T18:43:29;97750.81;;;15.08;100.00
59106;BME280;44891;50.204;8.132;2023-04-28T18:47:33;97758.25;;;15.06;100.00
59106;BME280;44891;50.204;8.132;2023-04-28T18:51:35;97763.75;;;14.80;100.00
59106;BME280;44891;50.204;8.132;2023-04-28T18:55:38;97780.94;;;14.78;100.00
59106;BME280;44891;50.204;8.132;2023-04-28T18:59:39;97781.88;;;14.92;100.00
59106;BME280;44891;50.204;8.132;2023-04-28T19:03:43;97787.41;;;14.95;100.00
59106;BME280;44891;50.204;8.132;2023-04-28T19:07:45;97806.56;;;14.82;100.00
59106;BME280;44891;50.204;8.132;2023-04-28T19:11:47;97810.00;;;14.78;100.00
59106;BME280;44891;50.204;8.132;2023-04-28T19:15:50;97824.78;;;14.84;100.00
59106;BME280;44891;50.204;8.132;2023-04-28T19:19:54;97835.91;;;14.81;100.00
59106;BME280;44891;50.204;8.132;2023-04-28T19:23:56;97841.91;;;14.91;98.48
59106;BME280;44891;50.204;8.132;2023-04-28T19:27:58;97850.63;;;14.92;98.29
59106;BME280;44891;50.204;8.132;2023-04-28T19:32:00;97850.69;;;14.87;96.17
59106;BME280;44891;50.204;8.132;2023-04-28T19:36:05;97861.78;;;14.84;95.60
59106;BME280;44891;50.204;8.132;2023-04-28T19:40:09;97871.56;;;14.83;94.86
59106;BME280;44891;50.204;8.132;2023-04-28T19:44:11;97887.50;;;14.73;96.00
59106;BME280;44891;50.204;8.132;2023-04-28T19:48:13;97883.25;;;14.72;95.67
59106;BME280;44891;50.204;8.132;2023-04-28T19:52:16;97890.97;;;14.68;95.45
59106;BME280;44891;50.204;8.132;2023-04-28T19:56:18;97894.69;;;14.62;94.86
59106;BME280;44891;50.204;8.132;2023-04-28T20:00:20;97909.19;;;14.65;93.78
59106;BME280;44891;50.204;8.132;2023-04-28T20:04:23;97905.81;;;14.54;93.55
59106;BME280;44891;50.204;8.132;2023-04-28T20:08:29;97897.34;;;14.52;93.57
59106;BME280;44891;50.204;8.132;2023-04-28T20:12:31;97903.72;;;14.51;93.30
59106;BME280;44891;50.204;8.132;2023-04-28T20:16:33;97915.31;;;14.45;92.77
59106;BME280;44891;50.204;8.132;2023-04-28T20:20:35;97911.69;;;14.46;90.04
59106;BME280;44891;50.204;8.132;2023-04-28T20:24:38;97906.13;;;14.37;90.56
59106;BME280;44891;50.204;8.132;2023-04-28T20:28:40;97912.97;;;14.38;88.91
59106;BME280;44891;50.204;8.132;2023-04-28T20:32:42;97911.94;;;14.34;88.80
59106;BME280;44891;50.204;8.132;2023-04-28T20:36:44;97901.13;;;14.26;89.05
59106;BME280;44891;50.204;8.132;2023-04-28T20:40:47;97900.09;;;14.17;88.96
59106;BME280;44891;50.204;8.132;2023-04-28T20:44:49;97900.66;;;14.03;90.79
59106;BME280;44891;50.204;8.132;2023-04-28T20:48:51;97904.38;;;13.92;91.66
59106;BME280;44891;50.204;8.132;2023-04-28T20:52:53;97906.22;;;13.97;89.74
59106;BME280;44891;50.204;8.132;2023-04-28T20:56:56;97916.00;;;13.96;88.88
59106;BME280;44891;50.204;8.132;2023-04-28T21:00:58;97911.28;;;13.93;90.92
59106;BME280;44891;50.204;8.132;2023-04-28T21:05:00;97907.34;;;13.55;93.46
59106;BME280;44891;50.204;8.132;2023-04-28T21:09:01;97901.28;;;13.34;92.42
59106;BME280;44891;50.204;8.132;2023-04-28T21:13:05;97894.41;;;13.23;93.49
59106;BME280;44891;50.204;8.132;2023-04-28T21:17:09;97904.91;;;13.07;93.55
59106;BME280;44891;50.204;8.132;2023-04-28T21:21:11;97910.69;;;13.04;94.27
59106;BME280;44891;50.204;8.132;2023-04-28T21:25:12;97898.78;;;12.82;96.68
59106;BME280;44891;50.204;8.132;2023-04-28T21:29:16;97906.16;;;12.74;98.60
59106;BME280;44891;50.204;8.132;2023-04-28T21:33:18;97903.44;;;12.49;99.97
59106;BME280;44891;50.204;8.132;2023-04-28T21:37:21;97901.09;;;12.58;99.57